Time;durP1;ratioP1;P1;durP2;ratioP2;P2;SDS_P1;SDS_P2;PMS_P1;PMS_P2;Temp;Humidity;BMP_temperature;BMP_pressure;BME280_temperature;BME280_humidity;BME280_pressure;Samples;Min_cycle;Max_cycle;Signal;HPM_P1;HPM_P2
2022/03/30 16:23:32;;;;;;;12.83;5.17;;;22.90;30.20;;;;;;5015169;28;20368;-65
2022/03/30 16:25:59;;;;;;;9.27;5.50;;;23.00;30.40;;;;;;5002770;28;20241;-61
2022/03/30 16:28:26;;;;;;;7.97;4.50;;;22.90;30.50;;;;;;4997049;28;20691;-55
2022/03/30 16:30:53;;;;;;;5.27;3.90;;;23.00;30.70;;;;;;5002455;28;20203;-54
2022/03/30 16:33:19;;;;;;;7.07;4.53;;;23.00;30.70;;;;;;5002718;28;20240;-59
2022/03/30 16:35:45;;;;;;;9.13;4.70;;;23.00;30.90;;;;;;5004434;28;20223;-58
2022/03/30 16:38:12;;;;;;;5.15;3.35;;;23.10;31.40;;;;;;5008797;28;20206;-50
2022/03/30 16:40:39;;;;;;;5.28;4.18;;;23.10;30.70;;;;;;4998843;28;20233;-58
2022/03/30 16:43:06;;;;;;;6.38;4.45;;;23.20;31.00;;;;;;5004617;28;20227;-57
2022/03/30 16:45:32;;;;;;;4.22;3.58;;;23.20;30.90;;;;;;4998763;28;20230;-62
2022/03/30 21:07:22;;;;;;;6.10;4.30;;;18.90;27.30;;;;;;5089683;27;21023;-78
2022/03/30 21:09:48;;;;;;;5.20;4.37;;;14.40;37.40;;;;;;5097602;28;20725;-77
2022/03/30 21:12:15;;;;;;;5.33;4.83;;;12.20;42.20;;;;;;5090311;28;20231;-77
2022/03/30 21:14:42;;;;;;;5.40;4.90;;;11.30;45.70;;;;;;5077776;28;20243;-78
2022/03/30 21:17:09;;;;;;;5.17;4.67;;;10.80;47.10;;;;;;5026632;28;20249;-79
2022/03/30 21:19:35;;;;;;;6.93;5.47;;;10.40;48.70;;;;;;5046356;28;20231;-78
2022/03/30 21:22:02;;;;;;;8.70;5.30;;;10.30;49.60;;;;;;5077447;28;20314;-77
2022/03/30 21:24:28;;;;;;;9.93;6.10;;;10.20;50.20;;;;;;5073222;28;20202;-77
2022/03/30 21:26:55;;;;;;;8.40;6.43;;;10.10;51.00;;;;;;5070571;28;20226;-78
2022/03/30 21:29:21;;;;;;;8.70;6.17;;;10.10;51.30;;;;;;5080704;28;20685;-77
2022/03/30 21:31:48;;;;;;;8.93;6.70;;;10.00;51.50;;;;;;5069337;28;20221;-77
2022/03/30 21:34:15;;;;;;;7.63;6.80;;;10.00;52.30;;;;;;5083675;28;20212;-78
2022/03/30 21:36:41;;;;;;;8.93;7.30;;;9.90;53.30;;;;;;5084931;28;20664;-76
2022/03/30 21:39:08;;;;;;;7.97;7.00;;;10.00;52.40;;;;;;5083432;28;20596;-76
2022/03/30 21:41:35;;;;;;;9.23;7.00;;;9.90;53.60;;;;;;5084910;28;20222;-78
2022/03/30 21:44:02;;;;;;;7.83;7.13;;;9.90;53.70;;;;;;5080805;28;20219;-78
2022/03/30 21:46:28;;;;;;;9.83;7.10;;;9.90;53.60;;;;;;5078164;28;20224;-79
2022/03/30 21:48:55;;;;;;;10.07;7.97;;;9.90;54.20;;;;;;5077404;28;20200;-81
2022/03/30 21:51:22;;;;;;;9.47;7.50;;;9.80;54.30;;;;;;5083539;28;20702;-81
2022/03/30 21:53:48;;;;;;;9.97;8.40;;;9.80;54.30;;;;;;5084785;28;20663;-76
2022/03/30 21:56:15;;;;;;;9.60;7.97;;;9.80;54.70;;;;;;5073395;28;20664;-77
2022/03/30 21:58:41;;;;;;;11.17;8.73;;;9.80;55.20;;;;;;5077201;28;20203;-77
2022/03/30 22:01:08;;;;;;;9.83;8.40;;;9.80;55.40;;;;;;5073780;28;21223;-77
2022/03/30 22:03:35;;;;;;;9.23;8.33;;;9.80;55.40;;;;;;5072841;28;20204;-76
2022/03/30 22:06:02;;;;;;;9.37;8.47;;;9.80;55.60;;;;;;5046678;28;20228;-84
2022/03/30 22:08:29;;;;;;;28.37;8.97;;;9.80;55.90;;;;;;5064846;28;21957;-83
2022/03/30 22:10:55;;;;;;;10.17;9.17;;;9.80;56.30;;;;;;5063384;28;20228;-76
2022/03/30 22:13:22;;;;;;;10.10;9.07;;;9.70;56.30;;;;;;5067270;28;20209;-77
2022/03/30 22:15:49;;;;;;;13.10;10.37;;;9.80;56.80;;;;;;5062081;28;20204;-80
2022/03/30 22:18:16;;;;;;;12.93;9.73;;;9.70;57.10;;;;;;5051172;28;20557;-83
2022/03/30 22:20:43;;;;;;;10.07;9.07;;;9.80;56.60;;;;;;5046889;28;20676;-81
2022/03/30 22:23:10;;;;;;;10.97;9.70;;;9.70;56.60;;;;;;5050361;28;20215;-81
2022/03/30 22:25:37;;;;;;;11.30;9.57;;;9.70;57.20;;;;;;5043741;28;20271;-81
2022/03/30 22:28:04;;;;;;;14.40;10.17;;;9.70;57.30;;;;;;5052456;28;20656;-84
2022/03/30 22:30:30;;;;;;;11.83;10.63;;;9.60;57.60;;;;;;5047413;28;20208;-82
2022/03/30 22:35:44;;;;;;;11.67;10.47;;;9.60;57.70;;;;;;5053558;28;20258;-82
2022/03/30 22:38:11;;;;;;;10.83;9.70;;;9.60;57.80;;;;;;5052539;28;20213;-83
2022/03/30 22:40:38;;;;;;;11.73;10.53;;;9.60;58.50;;;;;;5052192;28;20209;-82
2022/03/30 22:43:04;;;;;;;11.30;10.20;;;9.60;58.00;;;;;;5052552;28;20201;-82
2022/03/30 22:45:31;;;;;;;14.03;11.77;;;9.70;58.40;;;;;;5047819;28;20209;-83
2022/03/30 22:47:57;;;;;;;13.17;11.57;;;9.70;57.90;;;;;;5050133;28;20204;-83
2022/03/30 22:50:25;;;;;;;13.00;11.67;;;9.70;57.70;;;;;;5035177;28;20572;-83
2022/03/30 22:52:51;;;;;;;12.40;11.27;;;9.70;58.30;;;;;;5034534;28;20628;-82
2022/03/30 22:55:18;;;;;;;13.80;11.63;;;9.60;58.50;;;;;;5041608;28;21102;-82
2022/03/30 22:57:45;;;;;;;14.87;12.20;;;9.70;58.60;;;;;;5052457;28;20204;-81
2022/03/30 23:00:11;;;;;;;13.33;11.93;;;9.70;58.60;;;;;;5053369;28;20204;-81
2022/03/30 23:02:38;;;;;;;14.67;12.33;;;9.70;58.40;;;;;;5037799;28;20226;-81
2022/03/30 23:10:34;;;;;;;13.23;11.83;;;9.70;58.50;;;;;;5038806;28;20199;-82
2022/03/30 23:13:01;;;;;;;15.43;12.90;;;9.70;58.80;;;;;;5050421;28;20199;-81
2022/03/30 23:15:28;;;;;;;14.77;13.07;;;9.70;59.90;;;;;;5051070;28;20209;-81
2022/03/30 23:17:54;;;;;;;15.80;12.97;;;9.60;59.00;;;;;;5039177;28;20194;-82
2022/03/30 23:20:21;;;;;;;14.23;12.83;;;9.60;59.40;;;;;;5052992;28;20196;-83
2022/03/30 23:22:48;;;;;;;15.90;13.13;;;9.50;61.20;;;;;;5050294;28;20298;-81
2022/03/30 23:25:14;;;;;;;16.20;13.27;;;9.60;60.00;;;;;;5047381;28;20219;-81
2022/03/30 23:27:41;;;;;;;14.97;13.37;;;9.60;60.30;;;;;;5051749;28;20582;-82
2022/03/30 23:30:08;;;;;;;14.50;13.00;;;9.60;59.20;;;;;;5047673;28;20205;-80
2022/03/30 23:32:34;;;;;;;13.60;12.17;;;9.60;59.70;;;;;;5050403;28;20692;-81
2022/03/30 23:35:01;;;;;;;14.80;13.20;;;9.60;59.30;;;;;;5051356;28;20216;-81
2022/03/30 23:37:27;;;;;;;15.17;13.53;;;9.50;59.80;;;;;;5038805;28;20291;-81
2022/03/30 23:39:55;;;;;;;15.17;13.57;;;9.60;60.40;;;;;;5040774;28;20680;-81
2022/03/30 23:42:21;;;;;;;14.67;13.17;;;9.50;59.60;;;;;;5041900;28;20240;-81
2022/03/30 23:44:48;;;;;;;15.37;13.67;;;9.60;60.00;;;;;;5052213;28;20204;-81
2022/03/30 23:47:15;;;;;;;16.37;14.63;;;9.60;60.30;;;;;;5050245;28;20877;-81
2022/03/30 23:49:41;;;;;;;17.27;14.73;;;9.50;60.00;;;;;;5035581;28;20210;-81
2022/03/30 23:52:09;;;;;;;16.10;14.17;;;9.50;59.70;;;;;;5047983;28;20227;-82
2022/03/30 23:54:36;;;;;;;17.33;14.80;;;9.50;60.40;;;;;;5037648;28;20204;-81
2022/03/30 23:59:43;;;;;;;16.17;14.47;;;9.40;60.50;;;;;;5046873;28;20611;-81
